createdAt,value
2019-03-15T00:01:28.454Z,1.73
2019-03-15T00:03:55.833Z,1.33
2019-03-15T00:06:23.478Z,1.90
2019-03-15T00:08:51.215Z,1.43
2019-03-15T00:11:18.675Z,1.97
2019-03-15T00:13:46.628Z,1.67
2019-03-15T00:16:13.972Z,1.80
2019-03-15T00:18:41.553Z,1.50
2019-03-15T00:21:08.966Z,1.43
2019-03-15T00:23:37.114Z,1.53
2019-03-15T00:26:04.663Z,2.10
2019-03-15T00:28:32.070Z,1.73
2019-03-15T00:30:59.617Z,2.00
2019-03-15T00:33:27.028Z,1.33
2019-03-15T00:35:54.504Z,1.47
2019-03-15T00:38:22.021Z,2.17
2019-03-15T00:40:49.478Z,1.57
2019-03-15T00:43:17.352Z,1.50
2019-03-15T00:45:44.842Z,1.57
2019-03-15T00:48:12.534Z,1.80
2019-03-15T00:50:40.370Z,1.57
2019-03-15T00:53:08.354Z,1.80
2019-03-15T00:55:35.880Z,1.90
2019-03-15T00:58:03.449Z,1.20
2019-03-15T01:00:30.963Z,1.50
2019-03-15T01:02:58.403Z,1.60
2019-03-15T01:05:26.151Z,1.60
2019-03-15T01:07:53.927Z,1.30
2019-03-15T01:10:21.620Z,1.57
2019-03-15T01:12:49.155Z,1.70
2019-03-15T01:15:17.355Z,1.90
2019-03-15T01:17:44.715Z,1.23
2019-03-15T01:20:12.575Z,1.40
2019-03-15T01:22:40.066Z,1.50
2019-03-15T01:25:08.316Z,1.43
2019-03-15T01:27:35.795Z,1.27
2019-03-15T01:30:04.359Z,1.30
2019-03-15T01:32:31.783Z,1.63
2019-03-15T01:34:59.170Z,1.43
2019-03-15T01:37:26.818Z,1.20
2019-03-15T01:39:54.257Z,1.77
2019-03-15T01:42:22.447Z,1.63
2019-03-15T01:44:49.822Z,1.50
2019-03-15T01:47:17.536Z,1.77
2019-03-15T01:49:45.380Z,1.20
2019-03-15T01:52:13.035Z,1.30
2019-03-15T01:54:40.550Z,1.43
2019-03-15T01:57:07.912Z,1.67
2019-03-15T01:59:35.485Z,1.60
2019-03-15T02:02:03.022Z,2.07
2019-03-15T02:04:31.443Z,1.57
2019-03-15T02:06:59.167Z,1.70
2019-03-15T02:09:26.672Z,1.87
2019-03-15T02:11:54.170Z,1.60
2019-03-15T02:14:21.564Z,1.63
2019-03-15T02:16:49.659Z,1.70
2019-03-15T02:19:17.045Z,1.30
2019-03-15T02:21:44.884Z,1.90
2019-03-15T02:24:13.061Z,2.13
2019-03-15T02:26:41.278Z,1.93
2019-03-15T02:29:09.029Z,2.17
2019-03-15T02:31:36.732Z,2.53
2019-03-15T02:34:04.376Z,2.27
2019-03-15T02:36:31.766Z,1.50
2019-03-15T02:38:59.263Z,1.60
2019-03-15T02:41:26.650Z,1.47
2019-03-15T02:43:54.539Z,1.60
2019-03-15T02:46:21.886Z,1.77
2019-03-15T02:48:49.995Z,1.40
2019-03-15T02:51:17.505Z,1.90
2019-03-15T02:53:45.865Z,1.43
2019-03-15T02:56:13.437Z,1.47
2019-03-15T02:58:42.465Z,1.57
2019-03-15T03:01:09.835Z,1.40
2019-03-15T03:03:37.646Z,1.57
2019-03-15T03:06:06.347Z,1.93
2019-03-15T03:08:34.017Z,1.63
2019-03-15T03:11:01.394Z,1.57
2019-03-15T03:13:29.119Z,1.60
2019-03-15T03:15:56.650Z,1.57
2019-03-15T03:18:24.437Z,1.70
2019-03-15T03:20:52.072Z,1.73
2019-03-15T03:23:19.574Z,1.70
2019-03-15T03:25:47.438Z,1.40
2019-03-15T03:28:14.892Z,1.23
2019-03-15T03:30:45.113Z,1.60
2019-03-15T03:33:12.935Z,1.57
2019-03-15T03:35:40.640Z,1.40
2019-03-15T03:38:08.002Z,1.80
2019-03-15T03:40:35.753Z,1.20
2019-03-15T03:43:03.102Z,1.10
2019-03-15T03:45:30.594Z,1.80
2019-03-15T03:47:58.030Z,1.63
2019-03-15T03:50:25.537Z,1.63
2019-03-15T03:52:53.046Z,1.30
2019-03-15T03:55:20.760Z,1.37
2019-03-15T03:57:48.677Z,1.50
2019-03-15T04:00:16.222Z,1.53
2019-03-15T04:02:43.953Z,1.53
2019-03-15T04:05:11.752Z,1.23
2019-03-15T04:07:40.237Z,1.83
2019-03-15T04:10:07.677Z,1.10
2019-03-15T04:12:35.503Z,1.60
2019-03-15T04:15:04.081Z,1.67
2019-03-15T04:17:31.614Z,1.00
2019-03-15T04:19:59.136Z,1.70
2019-03-15T04:22:26.642Z,1.30
2019-03-15T04:24:54.161Z,1.30
2019-03-15T04:27:21.826Z,1.70
2019-03-15T04:29:49.352Z,1.60
2019-03-15T04:32:16.704Z,1.63
2019-03-15T04:34:44.678Z,1.50
2019-03-15T04:37:12.083Z,1.70
2019-03-15T04:39:40.432Z,1.40
2019-03-15T04:42:08.103Z,1.67
2019-03-15T04:44:36.859Z,2.33
2019-03-15T04:47:04.509Z,1.80
2019-03-15T04:49:31.908Z,2.70
2019-03-15T04:51:59.413Z,1.37
2019-03-15T04:54:27.013Z,1.63
2019-03-15T04:56:54.532Z,2.00
2019-03-15T04:59:23.972Z,2.10
2019-03-15T05:01:52.085Z,2.00
2019-03-15T05:04:19.926Z,2.13
2019-03-15T05:06:47.567Z,2.33
2019-03-15T05:09:15.873Z,2.20
2019-03-15T05:11:43.643Z,2.60
2019-03-15T05:14:10.968Z,1.77
2019-03-15T05:16:38.731Z,2.37
2019-03-15T05:19:06.306Z,2.37
2019-03-15T05:21:34.060Z,2.90
2019-03-15T05:24:01.747Z,2.60
2019-03-15T05:26:29.588Z,2.17
2019-03-15T05:28:57.369Z,2.47
2019-03-15T05:31:25.433Z,2.43
2019-03-15T05:33:54.428Z,2.53
2019-03-15T05:36:21.782Z,3.10
2019-03-15T05:38:49.295Z,2.70
2019-03-15T05:41:16.846Z,2.20
2019-03-15T05:43:44.659Z,2.80
2019-03-15T05:46:12.439Z,2.90
2019-03-15T05:48:39.841Z,2.97
2019-03-15T05:51:07.488Z,2.00
2019-03-15T05:53:35.118Z,2.73
2019-03-15T05:56:03.124Z,2.90
2019-03-15T05:58:30.486Z,2.93
2019-03-15T06:00:58.267Z,2.67
2019-03-15T06:03:26.067Z,3.13
2019-03-15T06:05:53.528Z,3.57
2019-03-15T06:08:21.395Z,3.10
2019-03-15T06:10:49.141Z,3.30
2019-03-15T06:13:16.660Z,3.23
2019-03-15T06:15:44.255Z,2.80
2019-03-15T06:18:11.900Z,3.20
2019-03-15T06:20:39.257Z,2.73
2019-03-15T06:23:06.764Z,2.57
2019-03-15T06:25:34.366Z,3.20
2019-03-15T06:28:01.776Z,3.30
2019-03-15T06:30:29.516Z,3.17
2019-03-15T06:32:56.767Z,3.27
2019-03-15T06:35:24.435Z,2.90
2019-03-15T06:37:51.800Z,4.27
2019-03-15T06:40:19.332Z,2.33
2019-03-15T06:42:47.198Z,3.07
2019-03-15T06:45:14.525Z,3.73
2019-03-15T06:47:41.970Z,2.77
2019-03-15T06:50:09.432Z,3.23
2019-03-15T06:52:36.940Z,4.47
2019-03-15T06:55:05.471Z,3.23
2019-03-15T06:57:33.659Z,3.43
2019-03-15T07:00:01.340Z,3.40
2019-03-15T07:02:29.038Z,3.00
2019-03-15T07:04:56.338Z,2.87
2019-03-15T07:07:23.707Z,2.80
2019-03-15T07:09:51.356Z,3.17
2019-03-15T07:12:19.081Z,3.40
2019-03-15T07:14:46.617Z,4.80
2019-03-15T07:17:14.734Z,2.43
2019-03-15T07:19:42.629Z,3.10
2019-03-15T07:22:10.233Z,3.80
2019-03-15T07:24:37.997Z,3.10
2019-03-15T07:27:12.947Z,3.23
2019-03-15T07:29:35.088Z,2.57
2019-03-15T07:32:02.573Z,3.20
2019-03-15T07:34:30.366Z,3.30
2019-03-15T07:36:57.956Z,3.00
2019-03-15T07:39:26.766Z,2.87
2019-03-15T07:41:54.282Z,3.10
2019-03-15T07:44:22.044Z,2.80
2019-03-15T07:46:51.054Z,2.90
2019-03-15T07:49:19.142Z,3.20
2019-03-15T07:51:46.635Z,3.20
2019-03-15T07:54:14.448Z,2.80
2019-03-15T07:56:41.960Z,2.40
2019-03-15T07:59:10.040Z,2.40
2019-03-15T08:01:37.539Z,2.93
2019-03-15T08:04:16.367Z,2.13
2019-03-15T08:06:36.244Z,3.30
2019-03-15T08:09:05.267Z,2.83
2019-03-15T08:11:32.809Z,2.80
2019-03-15T08:14:00.267Z,3.40
2019-03-15T08:16:27.741Z,2.83
2019-03-15T08:18:55.085Z,3.20
2019-03-15T08:21:22.948Z,3.50
2019-03-15T08:23:50.488Z,3.00
2019-03-15T08:26:17.831Z,2.90
2019-03-15T08:28:46.003Z,2.70
2019-03-15T08:31:14.074Z,2.83
2019-03-15T08:33:42.019Z,2.80
2019-03-15T08:36:09.564Z,2.93
2019-03-15T08:38:47.605Z,3.20
2019-03-15T08:41:07.588Z,2.80
2019-03-15T08:43:34.954Z,2.60
2019-03-15T08:46:03.183Z,2.13
2019-03-15T08:48:32.031Z,2.73
2019-03-15T08:51:00.619Z,2.47
2019-03-15T08:53:28.133Z,2.10
2019-03-15T08:55:55.794Z,2.57
2019-03-15T08:58:23.226Z,2.47
2019-03-15T09:00:50.675Z,2.07
2019-03-15T09:03:27.911Z,2.20
2019-03-15T09:05:48.485Z,1.80
2019-03-15T09:08:16.356Z,1.60
2019-03-15T09:10:44.588Z,1.67
2019-03-15T09:13:12.163Z,1.80
2019-03-15T09:15:39.947Z,1.33
2019-03-15T09:18:07.734Z,1.57
2019-03-15T09:20:35.520Z,0.80
2019-03-15T09:23:03.339Z,1.20
2019-03-15T09:25:30.895Z,1.10
2019-03-15T09:27:58.219Z,1.30
2019-03-15T09:30:26.212Z,1.30
2019-03-15T09:32:53.657Z,1.20
2019-03-15T09:35:21.175Z,1.30
2019-03-15T09:37:49.105Z,1.40
2019-03-15T09:40:16.644Z,1.00
2019-03-15T09:42:44.100Z,1.50
2019-03-15T09:45:12.594Z,0.90
2019-03-15T09:47:40.196Z,1.40
2019-03-15T09:50:21.506Z,0.80
2019-03-15T09:52:38.767Z,1.03
2019-03-15T09:55:06.525Z,0.90
2019-03-15T09:57:33.892Z,1.10
2019-03-15T10:00:02.267Z,0.90
2019-03-15T10:02:30.863Z,1.10
2019-03-15T10:05:10.012Z,1.00
2019-03-15T10:07:37.873Z,0.77
2019-03-15T10:09:57.183Z,1.10
2019-03-15T10:12:24.669Z,0.87
2019-03-15T10:14:52.084Z,0.80
2019-03-15T10:17:22.985Z,1.10
2019-03-15T10:19:49.933Z,1.37
2019-03-15T10:22:17.970Z,1.33
2019-03-15T10:24:45.818Z,1.03
2019-03-15T10:27:13.744Z,0.87
2019-03-15T10:29:41.517Z,1.50
2019-03-15T10:32:09.157Z,1.03
2019-03-15T10:34:37.024Z,0.80
2019-03-15T10:37:06.189Z,1.07
2019-03-15T10:39:33.913Z,1.40
2019-03-15T10:42:01.242Z,0.73
2019-03-15T10:44:28.745Z,1.13
2019-03-15T10:46:56.773Z,1.10
2019-03-15T10:49:24.304Z,1.10
2019-03-15T10:51:53.191Z,1.00
2019-03-15T10:54:21.064Z,1.00
2019-03-15T10:56:48.806Z,0.80
2019-03-15T10:59:16.189Z,0.97
2019-03-15T11:01:43.552Z,1.00
2019-03-15T11:04:11.108Z,1.60
2019-03-15T11:06:38.618Z,1.10
2019-03-15T11:09:06.507Z,1.63
2019-03-15T11:11:33.970Z,1.23
2019-03-15T11:14:01.341Z,1.07
2019-03-15T11:16:28.967Z,1.07
2019-03-15T11:18:56.320Z,1.37
2019-03-15T11:21:24.284Z,1.10
2019-03-15T11:23:52.389Z,1.63
2019-03-15T11:26:20.197Z,1.90
2019-03-15T11:28:47.709Z,1.57
2019-03-15T11:31:15.267Z,1.33
2019-03-15T11:33:42.596Z,1.10
2019-03-15T11:36:11.100Z,1.80
2019-03-15T11:38:38.576Z,1.63
2019-03-15T11:41:05.959Z,1.40
2019-03-15T11:43:33.513Z,1.20
2019-03-15T11:46:00.930Z,1.47
2019-03-15T11:48:28.328Z,1.00
2019-03-15T11:50:56.071Z,1.10
2019-03-15T11:53:23.483Z,0.90
2019-03-15T11:55:50.985Z,0.80
2019-03-15T11:58:18.810Z,0.90
2019-03-15T12:00:46.749Z,0.77
2019-03-15T12:03:18.870Z,0.60
2019-03-15T12:05:46.462Z,0.70
2019-03-15T12:08:15.832Z,0.60
2019-03-15T12:10:43.378Z,0.50
2019-03-15T12:13:11.571Z,0.60
2019-03-15T12:15:39.050Z,0.50
2019-03-15T12:18:08.385Z,0.60
2019-03-15T12:20:35.992Z,0.50
2019-03-15T12:23:03.459Z,0.60
2019-03-15T12:25:32.020Z,0.60
2019-03-15T12:27:59.694Z,0.60
2019-03-15T12:30:28.160Z,0.60
2019-03-15T12:32:55.893Z,0.60
2019-03-15T12:35:23.433Z,0.50
2019-03-15T12:37:50.925Z,0.50
2019-03-15T12:40:19.498Z,0.57
2019-03-15T12:42:46.987Z,0.53
2019-03-15T12:45:15.050Z,0.57
2019-03-15T12:47:42.567Z,0.57
2019-03-15T12:50:10.192Z,0.60
2019-03-15T12:52:47.216Z,0.60
2019-03-15T12:55:07.880Z,0.60
2019-03-15T12:57:35.236Z,1.07
2019-03-15T13:00:03.906Z,0.67
2019-03-15T13:02:31.513Z,0.67
2019-03-15T13:04:59.191Z,0.80
2019-03-15T13:07:27.581Z,0.70
2019-03-15T13:09:55.120Z,0.50
2019-03-15T13:12:22.965Z,0.80
2019-03-15T13:14:50.430Z,0.80
2019-03-15T13:17:17.873Z,0.80
2019-03-15T13:19:54.592Z,0.63
2019-03-15T13:22:14.658Z,0.50
2019-03-15T13:24:42.220Z,0.77
2019-03-15T13:27:10.008Z,0.70
2019-03-15T13:29:37.478Z,0.60
2019-03-15T13:32:05.222Z,0.60
2019-03-15T13:34:33.386Z,0.60
2019-03-15T13:37:01.581Z,0.83
2019-03-15T13:39:30.167Z,0.97
2019-03-15T13:41:57.651Z,0.80
2019-03-15T13:44:26.379Z,0.67
2019-03-15T13:46:54.247Z,1.03
2019-03-15T13:49:21.604Z,0.60
2019-03-15T13:51:49.141Z,0.90
2019-03-15T13:54:17.767Z,0.70
2019-03-15T13:56:48.281Z,0.73
2019-03-15T13:59:14.636Z,0.77
2019-03-15T14:01:42.164Z,0.70
2019-03-15T14:04:09.521Z,0.90
2019-03-15T14:06:37.299Z,0.83
2019-03-15T14:09:07.100Z,0.83
2019-03-15T14:11:34.841Z,0.63
2019-03-15T14:14:02.836Z,0.67
2019-03-15T14:16:30.742Z,1.03
2019-03-15T14:18:58.584Z,1.30
2019-03-15T14:21:25.933Z,0.90
2019-03-15T14:23:53.332Z,1.23
2019-03-15T14:26:20.888Z,0.70
2019-03-15T14:28:48.807Z,0.70
2019-03-15T14:31:17.093Z,1.00
2019-03-15T14:33:44.744Z,0.90
2019-03-15T14:36:12.642Z,0.97
2019-03-15T14:38:40.354Z,0.70
2019-03-15T14:41:08.223Z,0.83
2019-03-15T14:43:36.812Z,0.60
2019-03-15T14:46:04.473Z,0.90
2019-03-15T14:48:32.426Z,0.80
2019-03-15T14:50:59.912Z,0.50
2019-03-15T14:53:27.286Z,0.70
2019-03-15T14:55:54.940Z,0.80
2019-03-15T14:58:22.536Z,0.77
2019-03-15T15:00:49.927Z,0.67
2019-03-15T15:03:17.436Z,0.80
2019-03-15T15:05:47.181Z,0.70
2019-03-15T15:08:14.019Z,1.00
2019-03-15T15:10:41.568Z,0.77
2019-03-15T15:13:09.296Z,0.70
2019-03-15T15:15:37.393Z,1.20
2019-03-15T15:18:05.138Z,1.07
2019-03-15T15:20:32.597Z,0.70
2019-03-15T15:23:00.405Z,0.70
2019-03-15T15:25:27.902Z,1.00
2019-03-15T15:28:04.463Z,0.90
2019-03-15T15:30:25.705Z,1.20
2019-03-15T15:32:53.512Z,1.23
2019-03-15T15:35:20.998Z,1.13
2019-03-15T15:37:48.801Z,1.20
2019-03-15T15:40:16.621Z,1.00
2019-03-15T15:42:44.317Z,1.37
2019-03-15T15:45:13.098Z,1.50
2019-03-15T15:47:40.486Z,1.40
2019-03-15T15:50:08.039Z,1.10
2019-03-15T15:52:35.658Z,1.40
2019-03-15T15:55:03.393Z,1.23
2019-03-15T15:57:31.409Z,1.70
2019-03-15T15:59:58.987Z,1.70
2019-03-15T16:02:26.945Z,1.70
2019-03-15T16:04:55.711Z,1.57
2019-03-15T16:07:23.433Z,1.70
2019-03-15T16:09:51.092Z,2.03
2019-03-15T16:12:18.817Z,1.87
2019-03-15T16:14:46.452Z,1.40
2019-03-15T16:17:14.336Z,1.70
2019-03-15T16:19:42.209Z,2.30
2019-03-15T16:22:09.773Z,1.70
2019-03-15T16:24:37.524Z,1.73
2019-03-15T16:27:05.212Z,1.80
2019-03-15T16:29:32.597Z,1.90
2019-03-15T16:31:59.961Z,1.77
2019-03-15T16:34:27.475Z,1.93
2019-03-15T16:36:55.323Z,1.50
2019-03-15T16:39:22.888Z,1.70
2019-03-15T16:41:50.808Z,1.30
2019-03-15T16:44:18.340Z,1.73
2019-03-15T16:46:45.912Z,1.43
2019-03-15T16:49:13.630Z,1.90
2019-03-15T16:51:41.156Z,1.63
2019-03-15T16:54:08.623Z,1.90
2019-03-15T16:56:36.064Z,1.80
2019-03-15T16:59:04.913Z,1.53
2019-03-15T17:01:32.402Z,2.03
2019-03-15T17:04:00.237Z,1.80
2019-03-15T17:06:27.664Z,1.80
2019-03-15T17:08:55.252Z,2.07
2019-03-15T17:11:23.240Z,2.30
2019-03-15T17:14:10.819Z,2.20
2019-03-15T17:16:41.664Z,2.23
2019-03-15T17:19:09.018Z,1.80
2019-03-15T17:21:36.551Z,1.80
2019-03-15T17:24:04.114Z,1.60
2019-03-15T17:26:31.523Z,1.63
2019-03-15T17:28:59.219Z,1.40
2019-03-15T17:31:27.027Z,1.50
2019-03-15T17:33:55.099Z,1.30
2019-03-15T17:36:22.829Z,1.57
2019-03-15T17:38:50.183Z,1.80
2019-03-15T17:41:17.973Z,1.83
2019-03-15T17:43:45.493Z,2.50
2019-03-15T17:46:13.310Z,1.77
2019-03-15T17:48:41.992Z,1.90
2019-03-15T17:51:09.307Z,1.63
2019-03-15T17:53:36.905Z,2.20
2019-03-15T17:56:04.405Z,1.93
2019-03-15T17:58:32.468Z,1.23
2019-03-15T18:00:59.980Z,1.43
2019-03-15T18:03:27.750Z,1.53
2019-03-15T18:05:55.528Z,2.07
2019-03-15T18:08:23.049Z,1.50
2019-03-15T18:10:50.547Z,1.43
2019-03-15T18:13:18.382Z,1.67
2019-03-15T18:15:46.559Z,1.10
2019-03-15T18:18:13.880Z,1.70
2019-03-15T18:20:41.786Z,1.37
2019-03-15T18:23:09.445Z,1.90
2019-03-15T18:25:36.991Z,1.30
2019-03-15T18:28:04.572Z,1.70
2019-03-15T18:30:32.100Z,1.40
2019-03-15T18:33:00.000Z,1.80
2019-03-15T18:35:33.626Z,1.10
2019-03-15T18:37:57.405Z,1.33
2019-03-15T18:40:25.786Z,1.20
2019-03-15T18:42:53.142Z,1.50
2019-03-15T18:45:20.521Z,1.40
2019-03-15T18:47:47.872Z,1.10
2019-03-15T18:50:17.818Z,1.50
2019-03-15T18:52:45.306Z,1.10
2019-03-15T18:55:13.521Z,1.17
2019-03-15T18:57:41.016Z,1.30
2019-03-15T19:00:11.693Z,1.70
2019-03-15T19:02:39.884Z,1.10
2019-03-15T19:05:07.765Z,2.10
2019-03-15T19:07:35.205Z,1.63
2019-03-15T19:10:02.737Z,1.47
2019-03-15T19:12:30.623Z,0.97
2019-03-15T19:14:58.346Z,1.27
2019-03-15T19:17:25.832Z,1.00
2019-03-15T19:19:53.381Z,1.10
2019-03-15T19:22:21.430Z,1.10
2019-03-15T19:24:49.060Z,1.17
2019-03-15T19:27:16.743Z,1.40
2019-03-15T19:29:53.734Z,1.60
2019-03-15T19:32:13.508Z,1.63
2019-03-15T19:34:41.071Z,1.90
2019-03-15T19:37:08.844Z,1.47
2019-03-15T19:39:36.695Z,1.30
2019-03-15T19:42:04.175Z,1.90
2019-03-15T19:44:31.913Z,1.27
2019-03-15T19:46:59.372Z,1.60
2019-03-15T19:49:26.976Z,1.60
2019-03-15T19:51:54.661Z,1.63
2019-03-15T19:54:22.389Z,1.77
2019-03-15T19:56:49.832Z,1.47
2019-03-15T19:59:18.787Z,1.63
2019-03-15T20:01:46.589Z,1.50
2019-03-15T20:04:14.164Z,1.20
2019-03-15T20:06:41.726Z,1.07
2019-03-15T20:09:09.928Z,1.30
2019-03-15T20:11:40.136Z,1.13
2019-03-15T20:14:09.276Z,1.43
2019-03-15T20:16:36.656Z,1.17
2019-03-15T20:19:04.310Z,1.73
2019-03-15T20:21:31.808Z,1.37
2019-03-15T20:23:59.712Z,1.43
2019-03-15T20:26:27.538Z,1.33
2019-03-15T20:28:55.213Z,1.20
2019-03-15T20:31:23.269Z,0.90
2019-03-15T20:33:50.963Z,1.30
2019-03-15T20:36:18.564Z,1.47
2019-03-15T20:38:46.212Z,1.20
2019-03-15T20:41:14.207Z,1.23
2019-03-15T20:43:41.672Z,1.03
2019-03-15T20:46:09.419Z,1.20
2019-03-15T20:48:36.910Z,1.10
2019-03-15T20:51:04.315Z,1.27
2019-03-15T20:53:31.936Z,1.03
2019-03-15T20:55:59.690Z,1.57
2019-03-15T20:58:27.497Z,1.67
2019-03-15T21:00:54.988Z,1.20
2019-03-15T21:03:23.444Z,1.47
2019-03-15T21:05:51.317Z,1.37
2019-03-15T21:08:18.808Z,1.10
2019-03-15T21:10:46.473Z,1.30
2019-03-15T21:13:13.818Z,0.90
2019-03-15T21:15:41.474Z,0.70
2019-03-15T21:18:09.246Z,0.97
2019-03-15T21:20:37.265Z,1.13
2019-03-15T21:23:04.853Z,1.30
2019-03-15T21:25:32.627Z,0.90
2019-03-15T21:28:00.655Z,1.10
2019-03-15T21:30:28.168Z,1.27
2019-03-15T21:32:55.563Z,1.17
2019-03-15T21:35:23.263Z,0.87
2019-03-15T21:37:51.843Z,1.10
2019-03-15T21:40:19.489Z,1.30
2019-03-15T21:42:46.976Z,1.10
2019-03-15T21:45:15.002Z,0.77
2019-03-15T21:47:42.401Z,0.87
2019-03-15T21:50:10.824Z,1.57
2019-03-15T21:52:39.947Z,0.80
2019-03-15T21:55:07.707Z,0.90
2019-03-15T21:57:35.253Z,1.40
2019-03-15T22:00:02.971Z,1.17
2019-03-15T22:02:32.030Z,1.10
2019-03-15T22:04:59.774Z,1.10
2019-03-15T22:07:27.589Z,1.40
2019-03-15T22:09:55.434Z,1.70
2019-03-15T22:12:23.104Z,1.60
2019-03-15T22:14:50.850Z,1.20
2019-03-15T22:17:18.358Z,1.80
2019-03-15T22:19:46.105Z,1.27
2019-03-15T22:22:14.728Z,1.27
2019-03-15T22:24:42.384Z,1.77
2019-03-15T22:27:10.414Z,1.40
2019-03-15T22:29:38.052Z,1.17
2019-03-15T22:32:05.559Z,1.30
2019-03-15T22:34:32.898Z,1.37
2019-03-15T22:37:00.443Z,1.27
2019-03-15T22:39:28.656Z,1.40
2019-03-15T22:41:56.380Z,1.43
2019-03-15T22:44:24.115Z,1.70
2019-03-15T22:46:51.581Z,1.27
2019-03-15T22:49:19.374Z,1.27
2019-03-15T22:51:46.787Z,1.43
2019-03-15T22:54:14.248Z,1.77
2019-03-15T22:56:41.757Z,1.20
2019-03-15T22:59:09.569Z,1.40
2019-03-15T23:01:37.024Z,1.60
2019-03-15T23:04:04.645Z,1.60
2019-03-15T23:06:32.434Z,1.60
2019-03-15T23:08:59.918Z,1.67
2019-03-15T23:11:27.312Z,1.20
2019-03-15T23:13:57.080Z,1.70
2019-03-15T23:16:24.702Z,2.20
2019-03-15T23:18:52.520Z,1.50
2019-03-15T23:21:19.958Z,1.53
2019-03-15T23:24:03.380Z,0.90
2019-03-15T23:26:31.021Z,1.67
2019-03-15T23:28:58.516Z,1.50
2019-03-15T23:31:25.996Z,1.20
2019-03-15T23:33:53.554Z,1.33
2019-03-15T23:36:21.401Z,1.20
2019-03-15T23:38:50.103Z,1.00
2019-03-15T23:41:17.879Z,1.40
2019-03-15T23:43:45.248Z,1.10
2019-03-15T23:46:12.871Z,1.17
2019-03-15T23:48:40.405Z,1.10
2019-03-15T23:51:07.787Z,1.20
2019-03-15T23:53:35.175Z,1.07
2019-03-15T23:56:02.596Z,1.03
2019-03-15T23:58:30.296Z,1.20
